createdAt,value
2019-01-28T00:02:07.488Z,3.37
2019-01-28T00:04:38.101Z,3.36
2019-01-28T00:07:08.624Z,3.37
2019-01-28T00:09:39.197Z,3.35
2019-01-28T00:12:09.722Z,3.34
2019-01-28T00:14:40.251Z,3.36
2019-01-28T00:17:10.806Z,3.37
2019-01-28T00:19:41.344Z,3.37
2019-01-28T00:22:11.864Z,3.34
2019-01-28T00:24:42.417Z,3.34
2019-01-28T00:27:12.962Z,3.36
2019-01-28T00:29:45.289Z,3.33
2019-01-28T00:32:15.792Z,3.33
2019-01-28T00:34:46.347Z,3.33
2019-01-28T00:37:16.882Z,3.34
2019-01-28T00:39:47.479Z,3.34
2019-01-28T00:42:18.029Z,3.32
2019-01-28T00:44:48.545Z,3.30
2019-01-28T00:47:19.110Z,3.26
2019-01-28T00:49:49.710Z,3.27
2019-01-28T00:52:20.255Z,3.26
2019-01-28T00:54:50.783Z,3.27
2019-01-28T00:57:21.319Z,3.23
2019-01-28T00:59:51.854Z,3.23
2019-01-28T01:02:22.395Z,3.17
2019-01-28T01:04:52.997Z,3.17
2019-01-28T01:07:23.891Z,3.17
2019-01-28T01:09:54.401Z,3.15
2019-01-28T01:12:24.959Z,3.10
2019-01-28T01:14:55.529Z,3.00
2019-01-28T01:17:26.137Z,3.03
2019-01-28T01:19:56.644Z,3.00
2019-01-28T01:22:27.212Z,3.03
2019-01-28T01:24:57.743Z,3.06
2019-01-28T01:27:28.320Z,3.09
2019-01-28T01:29:58.852Z,3.09
2019-01-28T01:32:29.386Z,3.08
2019-01-28T01:34:59.966Z,3.05
2019-01-28T01:37:30.480Z,3.04
2019-01-28T01:40:01.044Z,3.02
2019-01-28T01:42:31.602Z,2.99
2019-01-28T01:45:02.172Z,3.01
2019-01-28T01:47:32.739Z,3.02
2019-01-28T01:50:03.289Z,3.00
2019-01-28T01:52:33.835Z,3.00
2019-01-28T01:55:04.891Z,2.97
2019-01-28T01:57:35.471Z,2.99
2019-01-28T02:00:10.762Z,2.98
2019-01-28T02:02:41.308Z,2.98
2019-01-28T02:05:11.939Z,2.99
2019-01-28T02:07:42.547Z,2.99
2019-01-28T02:10:16.875Z,3.00
2019-01-28T02:12:47.436Z,2.97
2019-01-28T02:15:19.978Z,2.98
2019-01-28T02:17:50.545Z,2.99
2019-01-28T02:20:21.197Z,3.01
2019-01-28T02:22:51.770Z,3.03
2019-01-28T02:25:22.301Z,3.01
2019-01-28T02:27:56.054Z,3.01
2019-01-28T02:30:26.671Z,2.95
2019-01-28T02:32:57.177Z,2.97
2019-01-28T02:35:27.763Z,2.89
2019-01-28T02:37:58.247Z,2.91
2019-01-28T02:40:29.786Z,2.92
2019-01-28T02:43:00.331Z,2.91
2019-01-28T02:45:30.865Z,2.90
2019-01-28T02:48:01.413Z,2.86
2019-01-28T02:50:31.935Z,2.83
2019-01-28T02:53:02.615Z,2.83
2019-01-28T02:55:33.182Z,2.83
2019-01-28T02:58:03.746Z,2.83
2019-01-28T03:00:34.392Z,2.78
2019-01-28T03:03:05.022Z,2.75
2019-01-28T03:05:35.573Z,2.68
2019-01-28T03:08:06.105Z,2.72
2019-01-28T03:10:38.191Z,2.74
2019-01-28T03:13:08.695Z,2.74
2019-01-28T03:15:39.238Z,2.73
2019-01-28T03:18:11.232Z,2.76
2019-01-28T03:20:41.819Z,2.76
2019-01-28T03:23:13.433Z,2.79
2019-01-28T03:25:44.607Z,2.72
2019-01-28T03:28:15.176Z,2.78
2019-01-28T03:30:45.753Z,2.69
2019-01-28T03:33:16.369Z,2.75
2019-01-28T03:35:47.860Z,2.74
2019-01-28T03:38:22.066Z,2.73
2019-01-28T03:40:52.643Z,2.68
2019-01-28T03:43:23.853Z,2.69
2019-01-28T03:45:54.983Z,2.69
2019-01-28T03:48:25.510Z,2.68
2019-01-28T03:50:56.156Z,2.67
2019-01-28T03:53:26.769Z,2.63
2019-01-28T03:55:57.430Z,2.63
2019-01-28T03:58:27.972Z,2.63
2019-01-28T04:00:59.556Z,2.58
2019-01-28T04:03:30.181Z,2.61
2019-01-28T04:06:00.800Z,2.66
2019-01-28T04:08:31.311Z,2.66
2019-01-28T04:11:01.890Z,2.67
2019-01-28T04:13:33.076Z,2.66
2019-01-28T04:16:03.648Z,2.61
2019-01-28T04:18:34.234Z,2.60
2019-01-28T04:21:04.779Z,2.59
2019-01-28T04:23:35.321Z,2.61
2019-01-28T04:26:06.031Z,2.59
2019-01-28T04:28:36.669Z,2.56
2019-01-28T04:31:07.847Z,2.56
2019-01-28T04:33:38.877Z,2.61
2019-01-28T04:36:10.101Z,2.57
2019-01-28T04:38:41.253Z,2.59
2019-01-28T04:41:11.801Z,2.58
2019-01-28T04:43:43.108Z,2.59
2019-01-28T04:46:13.632Z,2.63
2019-01-28T04:48:44.230Z,2.64
2019-01-28T04:51:14.851Z,2.68
2019-01-28T04:53:47.381Z,2.71
2019-01-28T04:56:18.059Z,2.69
2019-01-28T04:58:49.733Z,2.69
2019-01-28T05:01:20.662Z,2.71
2019-01-28T05:03:51.209Z,2.73
2019-01-28T05:06:21.756Z,2.73
2019-01-28T05:08:52.295Z,2.73
2019-01-28T05:11:22.850Z,2.71
2019-01-28T05:13:54.010Z,2.71
2019-01-28T05:16:24.569Z,2.68
2019-01-28T05:18:55.115Z,2.68
2019-01-28T05:21:25.642Z,2.70
2019-01-28T05:23:56.213Z,2.65
2019-01-28T05:26:26.815Z,2.66
2019-01-28T05:28:58.076Z,2.61
2019-01-28T05:31:28.636Z,2.64
2019-01-28T05:33:59.160Z,2.63
2019-01-28T05:36:29.696Z,2.65
2019-01-28T05:39:00.231Z,2.64
2019-01-28T05:41:32.144Z,2.62
2019-01-28T05:44:02.646Z,2.66
2019-01-28T05:46:33.196Z,2.65
2019-01-28T05:49:03.754Z,2.63
2019-01-28T05:51:34.332Z,2.63
2019-01-28T05:54:04.865Z,2.62
2019-01-28T05:56:35.414Z,2.59
2019-01-28T05:59:05.922Z,2.59
2019-01-28T06:01:36.506Z,2.58
2019-01-28T06:04:07.530Z,2.60
2019-01-28T06:06:39.143Z,2.60
2019-01-28T06:09:11.080Z,2.61
2019-01-28T06:11:41.681Z,2.61
2019-01-28T06:14:12.190Z,2.60
2019-01-28T06:16:42.777Z,2.60
2019-01-28T06:19:13.573Z,2.60
2019-01-28T06:21:44.194Z,2.54
2019-01-28T06:24:14.750Z,2.56
2019-01-28T06:26:45.297Z,2.51
2019-01-28T06:29:15.872Z,2.48
2019-01-28T06:31:46.447Z,2.48
2019-01-28T06:34:16.967Z,2.48
2019-01-28T06:36:47.520Z,2.50
2019-01-28T06:39:18.048Z,2.52
2019-01-28T06:41:48.673Z,2.52
2019-01-28T06:44:19.251Z,2.52
2019-01-28T06:46:49.947Z,2.51
2019-01-28T06:49:20.535Z,2.50
2019-01-28T06:51:52.212Z,2.51
2019-01-28T06:54:22.796Z,2.51
2019-01-28T06:56:53.358Z,2.52
2019-01-28T06:59:23.876Z,2.53
2019-01-28T07:01:54.460Z,2.54
2019-01-28T07:04:25.020Z,2.57
2019-01-28T07:06:55.543Z,2.56
2019-01-28T07:09:26.069Z,2.56
2019-01-28T07:11:56.597Z,2.58
2019-01-28T07:14:27.149Z,2.54
2019-01-28T07:16:57.720Z,2.55
2019-01-28T07:19:30.008Z,2.56
2019-01-28T07:22:00.632Z,2.51
2019-01-28T07:24:31.211Z,2.56
2019-01-28T07:27:01.772Z,2.54
2019-01-28T07:29:32.327Z,2.51
2019-01-28T07:32:02.899Z,2.49
2019-01-28T07:34:33.454Z,2.48
2019-01-28T07:37:04.799Z,2.49
2019-01-28T07:39:35.373Z,2.52
2019-01-28T07:42:06.045Z,2.54
2019-01-28T07:44:36.559Z,2.52
2019-01-28T07:47:07.147Z,2.50
2019-01-28T07:49:37.721Z,2.48
2019-01-28T07:52:09.710Z,2.52
2019-01-28T07:54:40.252Z,2.47
2019-01-28T07:57:11.386Z,2.49
2019-01-28T07:59:41.929Z,2.52
2019-01-28T08:02:12.546Z,2.52
2019-01-28T08:04:43.119Z,2.50
2019-01-28T08:07:14.348Z,2.52
2019-01-28T08:09:44.923Z,2.49
2019-01-28T08:12:15.535Z,2.52
2019-01-28T08:14:46.123Z,2.53
2019-01-28T08:17:16.717Z,2.57
2019-01-28T08:19:47.256Z,2.56
2019-01-28T08:22:17.782Z,2.53
2019-01-28T08:24:48.355Z,2.59
2019-01-28T08:27:18.984Z,2.58
2019-01-28T08:29:49.537Z,2.58
2019-01-28T08:32:20.125Z,2.59
2019-01-28T08:34:51.832Z,2.61
2019-01-28T08:37:22.414Z,2.65
2019-01-28T08:39:53.018Z,2.64
2019-01-28T08:42:23.571Z,2.59
2019-01-28T08:44:54.097Z,2.60
2019-01-28T08:47:24.659Z,2.62
2019-01-28T08:49:55.225Z,2.62
2019-01-28T08:52:25.942Z,2.62
2019-01-28T08:54:57.452Z,2.61
2019-01-28T08:57:30.512Z,2.61
2019-01-28T09:00:01.020Z,2.61
2019-01-28T09:02:31.588Z,2.60
2019-01-28T09:05:02.100Z,2.60
2019-01-28T09:07:32.697Z,2.63
2019-01-28T09:10:04.792Z,2.59
2019-01-28T09:12:35.393Z,2.62
2019-01-28T09:15:07.253Z,2.65
2019-01-28T09:17:37.839Z,2.66
2019-01-28T09:20:12.609Z,2.66
2019-01-28T09:22:43.223Z,2.69
2019-01-28T09:25:14.684Z,2.70
2019-01-28T09:27:45.289Z,2.75
2019-01-28T09:30:23.912Z,2.76
2019-01-28T09:32:54.594Z,2.80
2019-01-28T09:35:25.423Z,2.82
2019-01-28T09:37:56.107Z,2.82
2019-01-28T09:40:29.061Z,2.81
2019-01-28T09:42:59.675Z,2.84
2019-01-28T09:45:33.603Z,2.86
2019-01-28T09:48:04.338Z,2.90
2019-01-28T09:50:34.927Z,2.91
2019-01-28T09:53:05.662Z,2.93
2019-01-28T09:55:36.198Z,2.97
2019-01-28T09:58:07.565Z,3.00
2019-01-28T10:00:45.402Z,3.05
2019-01-28T10:03:15.964Z,3.03
2019-01-28T10:05:46.517Z,3.09
2019-01-28T10:08:18.815Z,3.12
2019-01-28T10:10:49.447Z,3.13
2019-01-28T10:13:20.090Z,3.16
2019-01-28T10:15:50.694Z,3.17
2019-01-28T10:18:25.044Z,3.20
2019-01-28T10:20:55.629Z,3.21
2019-01-28T10:23:26.265Z,3.19
2019-01-28T10:25:57.872Z,3.22
2019-01-28T10:28:30.724Z,3.21
2019-01-28T10:31:01.316Z,3.20
2019-01-28T10:33:31.909Z,3.24
2019-01-28T10:36:02.444Z,3.27
2019-01-28T10:38:32.971Z,3.31
2019-01-28T10:41:03.465Z,3.29
2019-01-28T10:43:34.057Z,3.35
2019-01-28T10:46:04.568Z,3.34
2019-01-28T10:48:35.207Z,3.37
2019-01-28T10:51:06.165Z,3.38
2019-01-28T10:53:36.709Z,3.39
2019-01-28T10:56:07.879Z,3.39
2019-01-28T10:58:38.412Z,3.41
2019-01-28T11:01:08.944Z,3.43
2019-01-28T11:03:39.507Z,3.46
2019-01-28T11:06:10.053Z,3.47
2019-01-28T11:08:40.606Z,3.39
2019-01-28T11:11:11.077Z,3.38
2019-01-28T11:13:41.671Z,3.41
2019-01-28T11:16:12.341Z,3.45
2019-01-28T11:18:43.045Z,3.45
2019-01-28T11:21:13.591Z,3.46
2019-01-28T11:23:44.202Z,3.43
2019-01-28T11:26:14.743Z,3.39
2019-01-28T11:28:45.413Z,3.42
2019-01-28T11:31:16.004Z,3.45
2019-01-28T11:33:46.658Z,3.48
2019-01-28T11:36:17.320Z,3.45
2019-01-28T11:38:49.495Z,3.48
2019-01-28T11:41:20.075Z,3.52
2019-01-28T11:43:50.684Z,3.49
2019-01-28T11:46:21.265Z,3.50
2019-01-28T11:48:51.863Z,3.57
2019-01-28T11:51:22.425Z,3.58
2019-01-28T11:53:52.972Z,3.53
2019-01-28T11:56:23.510Z,3.56
2019-01-28T11:58:54.055Z,3.59
2019-01-28T12:01:28.221Z,3.63
2019-01-28T12:03:58.884Z,3.58
2019-01-28T12:06:29.491Z,3.51
2019-01-28T12:09:00.049Z,3.53
2019-01-28T12:11:30.697Z,3.51
2019-01-28T12:14:01.211Z,3.54
2019-01-28T12:16:31.843Z,3.54
2019-01-28T12:19:02.353Z,3.56
2019-01-28T12:21:32.975Z,3.58
2019-01-28T12:24:03.500Z,3.59
2019-01-28T12:26:34.061Z,3.60
2019-01-28T12:29:05.228Z,3.57
2019-01-28T12:31:36.862Z,3.56
2019-01-28T12:34:07.492Z,3.59
2019-01-28T12:36:38.070Z,3.61
2019-01-28T12:39:10.094Z,3.64
2019-01-28T12:41:40.718Z,3.69
2019-01-28T12:44:11.225Z,3.62
2019-01-28T12:46:41.783Z,3.65
2019-01-28T12:49:12.281Z,3.64
2019-01-28T12:51:45.161Z,3.66
2019-01-28T12:54:15.751Z,3.67
2019-01-28T12:56:46.231Z,3.62
2019-01-28T12:59:16.766Z,3.61
2019-01-28T13:01:47.314Z,3.67
2019-01-28T13:04:17.879Z,3.75
2019-01-28T13:06:48.401Z,3.78
2019-01-28T13:09:18.983Z,3.77
2019-01-28T13:11:49.516Z,3.81
2019-01-28T13:14:20.117Z,3.83
2019-01-28T13:16:50.642Z,3.85
2019-01-28T13:19:21.208Z,3.85
2019-01-28T13:21:51.716Z,3.84
2019-01-28T13:24:22.284Z,3.92
2019-01-28T13:26:52.831Z,3.96
2019-01-28T13:29:23.373Z,3.91
2019-01-28T13:31:53.894Z,3.96
2019-01-28T13:34:24.482Z,3.95
2019-01-28T13:36:55.033Z,3.94
2019-01-28T13:39:25.579Z,3.97
2019-01-28T13:41:56.133Z,3.99
2019-01-28T13:44:26.648Z,3.96
2019-01-28T13:46:58.012Z,3.95
2019-01-28T13:49:28.581Z,4.00
2019-01-28T13:51:59.137Z,4.00
2019-01-28T13:54:29.708Z,3.99
2019-01-28T13:57:00.218Z,3.97
2019-01-28T13:59:30.791Z,3.96
2019-01-28T14:02:04.419Z,3.93
2019-01-28T14:04:36.336Z,3.88
2019-01-28T14:07:07.018Z,3.88
2019-01-28T14:09:37.529Z,3.87
2019-01-28T14:12:08.054Z,3.85
2019-01-28T14:14:38.619Z,3.82
2019-01-28T14:17:09.158Z,3.80
2019-01-28T14:19:46.332Z,3.73
2019-01-28T14:22:11.978Z,3.71
2019-01-28T14:24:42.537Z,3.74
2019-01-28T14:27:13.055Z,3.72
2019-01-28T14:29:49.600Z,3.72
2019-01-28T14:32:21.508Z,3.72
2019-01-28T14:34:52.019Z,3.68
2019-01-28T14:37:23.504Z,3.64
2019-01-28T14:39:54.035Z,3.64
2019-01-28T14:42:24.684Z,3.67
2019-01-28T14:44:55.257Z,3.62
2019-01-28T14:47:25.772Z,3.67
2019-01-28T14:49:56.261Z,3.68
2019-01-28T14:52:26.820Z,3.69
2019-01-28T14:54:57.451Z,3.68
2019-01-28T14:57:28.028Z,3.69
2019-01-28T14:59:58.573Z,3.72
2019-01-28T15:02:30.869Z,3.73
2019-01-28T15:05:01.422Z,3.75
2019-01-28T15:07:31.957Z,3.73
2019-01-28T15:10:02.551Z,3.69
2019-01-28T15:12:33.050Z,3.72
2019-01-28T15:15:03.596Z,3.74
2019-01-28T15:17:34.162Z,3.72
2019-01-28T15:20:05.391Z,3.64
2019-01-28T15:22:35.886Z,3.64
2019-01-28T15:25:07.551Z,3.72
2019-01-28T15:27:38.118Z,3.69
2019-01-28T15:30:14.000Z,3.68
2019-01-28T15:32:44.818Z,3.71
2019-01-28T15:35:15.524Z,3.65
2019-01-28T15:37:46.129Z,3.68
2019-01-28T15:40:21.286Z,3.71
2019-01-28T15:42:51.866Z,3.73
2019-01-28T15:45:31.342Z,3.74
2019-01-28T15:48:01.889Z,3.75
2019-01-28T15:50:32.449Z,3.73
2019-01-28T15:53:03.037Z,3.68
2019-01-28T15:55:36.740Z,3.71
2019-01-28T15:58:08.734Z,3.69
2019-01-28T16:00:40.460Z,3.67
2019-01-28T16:03:11.283Z,3.67
2019-01-28T16:05:42.908Z,3.65
2019-01-28T16:08:14.476Z,3.68
2019-01-28T16:10:44.986Z,3.65
2019-01-28T16:13:15.558Z,3.64
2019-01-28T16:15:49.335Z,3.67
2019-01-28T16:18:19.963Z,3.67
2019-01-28T16:20:50.447Z,3.69
2019-01-28T16:23:20.952Z,3.69
2019-01-28T16:25:51.533Z,3.69
2019-01-28T16:28:22.059Z,3.72
2019-01-28T16:30:52.637Z,3.71
2019-01-28T16:33:23.836Z,3.70
2019-01-28T16:35:54.551Z,3.73
2019-01-28T16:38:41.533Z,3.66
2019-01-28T16:41:12.142Z,3.68
2019-01-28T16:43:42.617Z,3.65
2019-01-28T16:46:13.236Z,3.67
2019-01-28T16:48:43.773Z,3.66
2019-01-28T16:51:14.689Z,3.67
2019-01-28T16:53:45.414Z,3.64
2019-01-28T16:56:16.371Z,3.64
2019-01-28T16:58:49.031Z,3.69
2019-01-28T17:01:20.020Z,3.65
2019-01-28T17:03:52.428Z,3.65
2019-01-28T17:06:22.998Z,3.63
2019-01-28T17:09:00.001Z,3.61
2019-01-28T17:11:34.633Z,3.64
2019-01-28T17:14:05.965Z,3.68
2019-01-28T17:16:37.618Z,3.68
2019-01-28T17:19:08.147Z,3.64
2019-01-28T17:21:38.701Z,3.65
2019-01-28T17:24:10.261Z,3.64
2019-01-28T17:26:42.950Z,3.66
2019-01-28T17:29:16.974Z,3.69
2019-01-28T17:31:47.590Z,3.70
2019-01-28T17:34:18.181Z,3.69
2019-01-28T17:36:48.752Z,3.67
2019-01-28T17:39:19.361Z,3.60
2019-01-28T17:41:50.987Z,3.58
2019-01-28T17:44:21.547Z,3.60
2019-01-28T17:46:52.093Z,3.60
2019-01-28T17:49:23.987Z,3.55
2019-01-28T17:51:54.546Z,3.53
2019-01-28T17:54:25.060Z,3.53
2019-01-28T17:56:55.616Z,3.47
2019-01-28T17:59:26.167Z,3.46
2019-01-28T18:01:56.713Z,3.48
2019-01-28T18:04:27.296Z,3.47
2019-01-28T18:06:57.828Z,3.46
2019-01-28T18:09:31.481Z,3.45
2019-01-28T18:12:02.006Z,3.40
2019-01-28T18:14:32.545Z,3.39
2019-01-28T18:17:03.156Z,3.39
2019-01-28T18:19:33.672Z,3.36
2019-01-28T18:22:04.256Z,3.32
2019-01-28T18:24:34.825Z,3.33
2019-01-28T18:27:09.728Z,3.31
2019-01-28T18:29:40.276Z,3.30
2019-01-28T18:32:10.820Z,3.31
2019-01-28T18:34:41.495Z,3.32
2019-01-28T18:37:12.166Z,3.29
2019-01-28T18:39:42.842Z,3.32
2019-01-28T18:42:13.404Z,3.32
2019-01-28T18:44:44.135Z,3.33
2019-01-28T18:47:14.669Z,3.27
2019-01-28T18:49:45.270Z,3.32
2019-01-28T18:52:15.838Z,3.34
2019-01-28T18:54:46.405Z,3.32
2019-01-28T18:57:16.952Z,3.34
2019-01-28T18:59:47.516Z,3.32
2019-01-28T19:02:18.087Z,3.30
2019-01-28T19:04:48.624Z,3.35
2019-01-28T19:07:44.228Z,3.35
2019-01-28T19:10:29.408Z,3.30
2019-01-28T19:13:06.926Z,3.32
2019-01-28T19:15:59.950Z,3.26
2019-01-28T19:18:38.858Z,3.33
2019-01-28T19:21:28.279Z,3.34
2019-01-28T19:24:01.453Z,3.29
2019-01-28T19:26:32.062Z,3.34
2019-01-28T19:29:02.650Z,3.38
2019-01-28T19:31:35.120Z,3.37
2019-01-28T19:34:05.895Z,3.32
2019-01-28T19:36:36.426Z,3.32
2019-01-28T19:39:09.749Z,3.32
2019-01-28T19:41:40.351Z,3.33
2019-01-28T19:44:10.905Z,3.29
2019-01-28T19:46:41.518Z,3.30
2019-01-28T19:49:12.108Z,3.26
2019-01-28T19:51:42.621Z,3.30
2019-01-28T19:54:13.217Z,3.28
2019-01-28T19:56:43.764Z,3.32
2019-01-28T19:59:14.396Z,3.31
2019-01-28T20:01:45.017Z,3.27
2019-01-28T20:04:15.578Z,3.23
2019-01-28T20:06:46.144Z,3.26
2019-01-28T20:09:16.749Z,3.21
2019-01-28T20:11:47.293Z,3.20
2019-01-28T20:14:17.775Z,3.18
2019-01-28T20:16:48.359Z,3.16
2019-01-28T20:19:18.937Z,3.13
2019-01-28T20:21:49.482Z,3.14
2019-01-28T20:24:20.058Z,3.12
2019-01-28T20:26:50.592Z,3.10
2019-01-28T20:29:21.232Z,3.09
2019-01-28T20:31:54.317Z,3.08
2019-01-28T20:34:24.870Z,3.01
2019-01-28T20:36:55.445Z,2.96
2019-01-28T20:39:25.966Z,2.94
2019-01-28T20:41:56.505Z,2.92
2019-01-28T20:44:27.102Z,2.92
2019-01-28T20:46:59.144Z,2.95
2019-01-28T20:49:29.680Z,2.98
2019-01-28T20:52:00.241Z,2.96
2019-01-28T20:54:30.854Z,2.97
2019-01-28T20:57:01.472Z,2.90
2019-01-28T20:59:31.955Z,2.95
2019-01-28T21:02:02.522Z,2.95
2019-01-28T21:04:33.192Z,2.90
2019-01-28T21:07:03.724Z,2.88
2019-01-28T21:09:37.013Z,2.92
2019-01-28T21:12:07.575Z,2.93
2019-01-28T21:14:38.125Z,2.89
2019-01-28T21:17:08.729Z,2.85
2019-01-28T21:19:39.306Z,2.85
2019-01-28T21:22:09.855Z,2.81
2019-01-28T21:24:40.513Z,2.81
2019-01-28T21:27:11.060Z,2.81
2019-01-28T21:29:41.661Z,2.80
2019-01-28T21:32:12.309Z,2.75
2019-01-28T21:34:42.829Z,2.77
2019-01-28T21:37:38.375Z,2.74
2019-01-28T21:40:10.116Z,2.76
2019-01-28T21:42:40.775Z,2.75
2019-01-28T21:45:12.002Z,2.72
2019-01-28T21:47:53.626Z,2.70
2019-01-28T21:50:26.103Z,2.68
2019-01-28T21:52:56.674Z,2.71
2019-01-28T21:55:27.236Z,2.70
2019-01-28T21:57:57.794Z,2.68
2019-01-28T22:00:30.180Z,2.70
2019-01-28T22:03:00.830Z,2.69
2019-01-28T22:05:32.473Z,2.68
2019-01-28T22:08:03.131Z,2.67
2019-01-28T22:10:33.653Z,2.70
2019-01-28T22:13:04.366Z,2.66
2019-01-28T22:15:34.926Z,2.64
2019-01-28T22:18:05.568Z,2.63
2019-01-28T22:20:36.157Z,2.62
2019-01-28T22:23:06.765Z,2.56
2019-01-28T22:25:37.303Z,2.53
2019-01-28T22:28:07.840Z,2.54
2019-01-28T22:30:38.402Z,2.53
2019-01-28T22:33:09.108Z,2.55
2019-01-28T22:35:39.589Z,2.52
2019-01-28T22:38:10.136Z,2.50
2019-01-28T22:40:40.690Z,2.51
2019-01-28T22:43:11.216Z,2.53
2019-01-28T22:45:41.790Z,2.51
2019-01-28T22:48:12.317Z,2.47
2019-01-28T22:50:42.916Z,2.46
2019-01-28T22:53:13.493Z,2.43
2019-01-28T22:55:44.011Z,2.41
2019-01-28T22:58:14.547Z,2.38
2019-01-28T23:00:53.496Z,2.36
2019-01-28T23:03:29.517Z,2.30
2019-01-28T23:06:00.077Z,2.26
2019-01-28T23:08:30.582Z,2.19
2019-01-28T23:11:01.124Z,2.18
2019-01-28T23:13:31.719Z,2.16
2019-01-28T23:16:02.230Z,2.11
2019-01-28T23:18:32.795Z,2.09
2019-01-28T23:21:03.309Z,2.10
2019-01-28T23:23:33.860Z,2.05
2019-01-28T23:26:04.615Z,2.04
2019-01-28T23:28:35.195Z,2.05
2019-01-28T23:31:06.693Z,2.03
2019-01-28T23:33:37.428Z,2.00
2019-01-28T23:36:08.000Z,1.97
2019-01-28T23:38:38.507Z,1.95
2019-01-28T23:41:09.065Z,1.95
2019-01-28T23:43:39.598Z,1.93
2019-01-28T23:46:10.100Z,1.91
2019-01-28T23:48:40.606Z,1.88
2019-01-28T23:51:11.145Z,1.86
2019-01-28T23:53:41.659Z,1.85
2019-01-28T23:56:12.235Z,1.83
2019-01-28T23:58:42.772Z,1.85
